Terminal Aerodrome Forecast
Issued by NWS

Home | Current Version | Previous Version | Text Only | Print | Product List | Glossary On
Versions: 1 2 3 4 5 6 7 8 9 10 11 12 13
599
FTUS43 KBIS 290526
TAFMOT
TAF
KMOT 290526Z 2906/3006 21008KT P6SM FEW250
     FM291800 20012KT P6SM SCT250
     FM300300 17006KT P6SM SCT200=

USA.gov is the U.S. government's official web portal to all federal, state and local government web resources and services.